sensor_id;sensor_type;location;lat;lon;timestamp;P1;durP1;ratioP1;P2;durP2;ratioP2
20423;SDS011;10371;49.042;8.002;2023-09-19T00:00:58;2.20;;;2.00;;
20423;SDS011;10371;49.042;8.002;2023-09-19T00:01:58;2.75;;;2.40;;
20423;SDS011;10371;49.042;8.002;2023-09-19T00:02:58;5.10;;;2.30;;
20423;SDS011;10371;49.042;8.002;2023-09-19T00:04:01;2.47;;;2.28;;
20423;SDS011;10371;49.042;8.002;2023-09-19T00:05:02;3.70;;;2.00;;
20423;SDS011;10371;49.042;8.002;2023-09-19T00:06:03;1.75;;;1.65;;
20423;SDS011;10371;49.042;8.002;2023-09-19T00:07:05;2.67;;;2.40;;
20423;SDS011;10371;49.042;8.002;2023-09-19T00:08:05;2.05;;;1.95;;
20423;SDS011;10371;49.042;8.002;2023-09-19T00:09:06;2.08;;;1.98;;
20423;SDS011;10371;49.042;8.002;2023-09-19T00:10:10;4.53;;;2.33;;
20423;SDS011;10371;49.042;8.002;2023-09-19T00:11:11;2.72;;;2.28;;
20423;SDS011;10371;49.042;8.002;2023-09-19T00:12:11;3.30;;;2.08;;
20423;SDS011;10371;49.042;8.002;2023-09-19T00:13:13;5.07;;;2.10;;
20423;SDS011;10371;49.042;8.002;2023-09-19T00:14:13;3.47;;;2.28;;
20423;SDS011;10371;49.042;8.002;2023-09-19T00:15:14;4.13;;;2.20;;
20423;SDS011;10371;49.042;8.002;2023-09-19T00:16:17;3.80;;;2.20;;
20423;SDS011;10371;49.042;8.002;2023-09-19T00:17:19;2.22;;;2.00;;
20423;SDS011;10371;49.042;8.002;2023-09-19T00:18:19;3.65;;;2.10;;
20423;SDS011;10371;49.042;8.002;2023-09-19T00:19:29;2.40;;;2.20;;
20423;SDS011;10371;49.042;8.002;2023-09-19T00:20:29;2.58;;;2.00;;
20423;SDS011;10371;49.042;8.002;2023-09-19T00:21:31;2.83;;;2.20;;
20423;SDS011;10371;49.042;8.002;2023-09-19T00:22:31;3.40;;;2.13;;
20423;SDS011;10371;49.042;8.002;2023-09-19T00:23:32;2.85;;;2.00;;
20423;SDS011;10371;49.042;8.002;2023-09-19T00:24:33;3.35;;;1.92;;
20423;SDS011;10371;49.042;8.002;2023-09-19T00:25:33;2.13;;;1.83;;
20423;SDS011;10371;49.042;8.002;2023-09-19T00:26:35;3.72;;;2.22;;
20423;SDS011;10371;49.042;8.002;2023-09-19T00:27:35;3.88;;;1.80;;
20423;SDS011;10371;49.042;8.002;2023-09-19T00:28:41;3.10;;;1.90;;
20423;SDS011;10371;49.042;8.002;2023-09-19T00:29:41;3.55;;;2.28;;
20423;SDS011;10371;49.042;8.002;2023-09-19T00:30:45;2.67;;;2.13;;
20423;SDS011;10371;49.042;8.002;2023-09-19T00:31:52;3.45;;;2.42;;
20423;SDS011;10371;49.042;8.002;2023-09-19T00:32:52;2.80;;;2.40;;
20423;SDS011;10371;49.042;8.002;2023-09-19T00:33:55;2.50;;;2.30;;
20423;SDS011;10371;49.042;8.002;2023-09-19T00:34:59;2.58;;;2.38;;
20423;SDS011;10371;49.042;8.002;2023-09-19T00:36:00;2.65;;;2.10;;
20423;SDS011;10371;49.042;8.002;2023-09-19T00:37:04;2.20;;;2.00;;
20423;SDS011;10371;49.042;8.002;2023-09-19T00:38:04;4.30;;;2.33;;
20423;SDS011;10371;49.042;8.002;2023-09-19T00:39:06;4.30;;;2.33;;
20423;SDS011;10371;49.042;8.002;2023-09-19T00:40:08;2.78;;;2.20;;
20423;SDS011;10371;49.042;8.002;2023-09-19T00:41:15;2.75;;;2.33;;
20423;SDS011;10371;49.042;8.002;2023-09-19T00:42:21;4.07;;;2.30;;
20423;SDS011;10371;49.042;8.002;2023-09-19T00:43:21;3.42;;;2.50;;
20423;SDS011;10371;49.042;8.002;2023-09-19T00:44:24;4.93;;;2.85;;
20423;SDS011;10371;49.042;8.002;2023-09-19T00:45:24;4.13;;;3.40;;
20423;SDS011;10371;49.042;8.002;2023-09-19T00:46:24;3.47;;;3.17;;
20423;SDS011;10371;49.042;8.002;2023-09-19T00:47:25;3.10;;;2.85;;
20423;SDS011;10371;49.042;8.002;2023-09-19T00:48:28;5.28;;;2.70;;
20423;SDS011;10371;49.042;8.002;2023-09-19T00:49:29;3.90;;;3.33;;
20423;SDS011;10371;49.042;8.002;2023-09-19T00:50:30;3.75;;;3.38;;
20423;SDS011;10371;49.042;8.002;2023-09-19T00:51:32;3.95;;;3.55;;
20423;SDS011;10371;49.042;8.002;2023-09-19T00:52:33;4.72;;;3.50;;
20423;SDS011;10371;49.042;8.002;2023-09-19T00:53:36;3.25;;;2.95;;
20423;SDS011;10371;49.042;8.002;2023-09-19T00:54:38;3.00;;;2.80;;
20423;SDS011;10371;49.042;8.002;2023-09-19T00:55:39;2.80;;;2.53;;
20423;SDS011;10371;49.042;8.002;2023-09-19T00:56:44;3.63;;;3.22;;
20423;SDS011;10371;49.042;8.002;2023-09-19T00:57:46;4.25;;;3.85;;
20423;SDS011;10371;49.042;8.002;2023-09-19T00:58:47;4.45;;;3.88;;
20423;SDS011;10371;49.042;8.002;2023-09-19T00:59:48;5.38;;;4.97;;
20423;SDS011;10371;49.042;8.002;2023-09-19T01:00:50;5.97;;;5.25;;
20423;SDS011;10371;49.042;8.002;2023-09-19T01:01:53;6.60;;;6.00;;
20423;SDS011;10371;49.042;8.002;2023-09-19T01:02:56;6.15;;;5.60;;
20423;SDS011;10371;49.042;8.002;2023-09-19T01:03:56;5.95;;;5.45;;
20423;SDS011;10371;49.042;8.002;2023-09-19T01:04:57;7.00;;;6.30;;
20423;SDS011;10371;49.042;8.002;2023-09-19T01:05:59;6.82;;;6.22;;
20423;SDS011;10371;49.042;8.002;2023-09-19T01:07:00;6.32;;;5.63;;
20423;SDS011;10371;49.042;8.002;2023-09-19T01:08:00;6.00;;;5.38;;
20423;SDS011;10371;49.042;8.002;2023-09-19T01:09:01;6.70;;;5.85;;
20423;SDS011;10371;49.042;8.002;2023-09-19T01:10:04;6.75;;;6.15;;
20423;SDS011;10371;49.042;8.002;2023-09-19T01:11:10;6.85;;;6.00;;
20423;SDS011;10371;49.042;8.002;2023-09-19T01:12:16;6.03;;;5.43;;
20423;SDS011;10371;49.042;8.002;2023-09-19T01:13:34;6.07;;;5.47;;
20423;SDS011;10371;49.042;8.002;2023-09-19T01:14:59;6.22;;;4.65;;
20423;SDS011;10371;49.042;8.002;2023-09-19T01:16:20;6.78;;;5.53;;
20423;SDS011;10371;49.042;8.002;2023-09-19T01:17:34;6.60;;;6.00;;
20423;SDS011;10371;49.042;8.002;2023-09-19T01:19:07;7.57;;;6.78;;
20423;SDS011;10371;49.042;8.002;2023-09-19T01:20:32;8.68;;;7.97;;
20423;SDS011;10371;49.042;8.002;2023-09-19T01:25:13;8.52;;;7.90;;
20423;SDS011;10371;49.042;8.002;2023-09-19T01:30:43;7.13;;;6.53;;
20423;SDS011;10371;49.042;8.002;2023-09-19T01:31:44;6.03;;;5.35;;
20423;SDS011;10371;49.042;8.002;2023-09-19T01:32:45;5.03;;;4.63;;
20423;SDS011;10371;49.042;8.002;2023-09-19T01:34:02;7.35;;;5.70;;
20423;SDS011;10371;49.042;8.002;2023-09-19T01:35:08;6.82;;;3.97;;
20423;SDS011;10371;49.042;8.002;2023-09-19T01:36:12;3.47;;;3.17;;
20423;SDS011;10371;49.042;8.002;2023-09-19T01:37:13;3.10;;;2.90;;
20423;SDS011;10371;49.042;8.002;2023-09-19T01:38:14;3.72;;;3.42;;
20423;SDS011;10371;49.042;8.002;2023-09-19T01:39:15;5.00;;;3.40;;
20423;SDS011;10371;49.042;8.002;2023-09-19T01:40:16;4.35;;;2.88;;
20423;SDS011;10371;49.042;8.002;2023-09-19T01:41:28;4.47;;;2.85;;
20423;SDS011;10371;49.042;8.002;2023-09-19T01:44:00;2.95;;;2.20;;
20423;SDS011;10371;49.042;8.002;2023-09-19T01:46:33;4.72;;;2.90;;
20423;SDS011;10371;49.042;8.002;2023-09-19T01:47:37;3.15;;;2.55;;
20423;SDS011;10371;49.042;8.002;2023-09-19T01:48:46;3.00;;;2.70;;
20423;SDS011;10371;49.042;8.002;2023-09-19T01:49:56;2.88;;;2.60;;
20423;SDS011;10371;49.042;8.002;2023-09-19T01:54:26;4.32;;;3.92;;
20423;SDS011;10371;49.042;8.002;2023-09-19T01:55:30;4.57;;;4.18;;
20423;SDS011;10371;49.042;8.002;2023-09-19T01:56:37;5.00;;;3.80;;
20423;SDS011;10371;49.042;8.002;2023-09-19T01:57:54;4.50;;;3.42;;
20423;SDS011;10371;49.042;8.002;2023-09-19T01:59:06;3.42;;;3.13;;
20423;SDS011;10371;49.042;8.002;2023-09-19T02:00:10;3.72;;;3.38;;
20423;SDS011;10371;49.042;8.002;2023-09-19T02:01:15;5.78;;;3.70;;
20423;SDS011;10371;49.042;8.002;2023-09-19T02:02:20;3.63;;;3.20;;
20423;SDS011;10371;49.042;8.002;2023-09-19T02:03:22;4.53;;;3.00;;
20423;SDS011;10371;49.042;8.002;2023-09-19T02:04:24;3.30;;;2.60;;
20423;SDS011;10371;49.042;8.002;2023-09-19T02:05:24;3.35;;;2.70;;
20423;SDS011;10371;49.042;8.002;2023-09-19T02:06:25;2.60;;;2.40;;
20423;SDS011;10371;49.042;8.002;2023-09-19T02:07:26;2.40;;;2.15;;
20423;SDS011;10371;49.042;8.002;2023-09-19T02:08:27;5.10;;;2.67;;
20423;SDS011;10371;49.042;8.002;2023-09-19T02:09:27;2.83;;;2.63;;
20423;SDS011;10371;49.042;8.002;2023-09-19T02:10:28;2.97;;;2.50;;
20423;SDS011;10371;49.042;8.002;2023-09-19T02:11:28;3.35;;;3.10;;
20423;SDS011;10371;49.042;8.002;2023-09-19T02:12:28;4.38;;;3.33;;
20423;SDS011;10371;49.042;8.002;2023-09-19T02:13:30;3.38;;;3.08;;
20423;SDS011;10371;49.042;8.002;2023-09-19T02:14:31;3.40;;;3.00;;
20423;SDS011;10371;49.042;8.002;2023-09-19T02:15:32;6.00;;;3.28;;
20423;SDS011;10371;49.042;8.002;2023-09-19T02:16:34;3.85;;;3.55;;
20423;SDS011;10371;49.042;8.002;2023-09-19T02:17:35;5.40;;;3.70;;
20423;SDS011;10371;49.042;8.002;2023-09-19T02:18:35;3.70;;;3.40;;
20423;SDS011;10371;49.042;8.002;2023-09-19T02:19:35;3.63;;;3.28;;
20423;SDS011;10371;49.042;8.002;2023-09-19T02:20:39;3.17;;;2.90;;
20423;SDS011;10371;49.042;8.002;2023-09-19T02:21:39;4.20;;;3.00;;
20423;SDS011;10371;49.042;8.002;2023-09-19T02:22:43;3.88;;;2.88;;
20423;SDS011;10371;49.042;8.002;2023-09-19T02:23:44;2.75;;;2.42;;
20423;SDS011;10371;49.042;8.002;2023-09-19T02:24:47;2.58;;;2.35;;
20423;SDS011;10371;49.042;8.002;2023-09-19T02:25:51;2.88;;;2.35;;
20423;SDS011;10371;49.042;8.002;2023-09-19T02:26:56;3.20;;;2.13;;
20423;SDS011;10371;49.042;8.002;2023-09-19T02:27:59;3.70;;;2.20;;
20423;SDS011;10371;49.042;8.002;2023-09-19T02:29:01;2.65;;;2.10;;
20423;SDS011;10371;49.042;8.002;2023-09-19T02:30:04;3.88;;;2.00;;
20423;SDS011;10371;49.042;8.002;2023-09-19T02:31:06;3.35;;;2.28;;
20423;SDS011;10371;49.042;8.002;2023-09-19T02:32:06;2.60;;;2.40;;
20423;SDS011;10371;49.042;8.002;2023-09-19T02:33:06;3.33;;;2.38;;
20423;SDS011;10371;49.042;8.002;2023-09-19T02:34:08;3.03;;;2.17;;
20423;SDS011;10371;49.042;8.002;2023-09-19T02:35:08;2.85;;;2.10;;
20423;SDS011;10371;49.042;8.002;2023-09-19T02:36:10;2.58;;;2.20;;
20423;SDS011;10371;49.042;8.002;2023-09-19T02:37:11;3.00;;;2.40;;
20423;SDS011;10371;49.042;8.002;2023-09-19T02:38:13;4.03;;;2.72;;
20423;SDS011;10371;49.042;8.002;2023-09-19T02:39:14;2.42;;;2.22;;
20423;SDS011;10371;49.042;8.002;2023-09-19T02:40:14;2.65;;;2.45;;
20423;SDS011;10371;49.042;8.002;2023-09-19T02:41:25;3.33;;;2.60;;
20423;SDS011;10371;49.042;8.002;2023-09-19T02:42:26;4.28;;;2.75;;
20423;SDS011;10371;49.042;8.002;2023-09-19T02:43:26;3.53;;;3.22;;
20423;SDS011;10371;49.042;8.002;2023-09-19T02:44:27;5.63;;;2.90;;
20423;SDS011;10371;49.042;8.002;2023-09-19T02:45:27;4.05;;;3.33;;
20423;SDS011;10371;49.042;8.002;2023-09-19T02:46:29;3.67;;;3.10;;
20423;SDS011;10371;49.042;8.002;2023-09-19T02:47:29;3.83;;;3.28;;
20423;SDS011;10371;49.042;8.002;2023-09-19T02:48:30;3.72;;;3.42;;
20423;SDS011;10371;49.042;8.002;2023-09-19T02:49:34;4.03;;;3.42;;
20423;SDS011;10371;49.042;8.002;2023-09-19T02:50:34;3.65;;;3.33;;
20423;SDS011;10371;49.042;8.002;2023-09-19T02:51:35;5.15;;;2.70;;
20423;SDS011;10371;49.042;8.002;2023-09-19T02:52:35;3.28;;;2.92;;
20423;SDS011;10371;49.042;8.002;2023-09-19T02:53:36;6.32;;;3.30;;
20423;SDS011;10371;49.042;8.002;2023-09-19T02:54:37;4.22;;;3.38;;
20423;SDS011;10371;49.042;8.002;2023-09-19T02:55:37;3.55;;;3.25;;
20423;SDS011;10371;49.042;8.002;2023-09-19T02:56:38;4.05;;;3.38;;
20423;SDS011;10371;49.042;8.002;2023-09-19T02:57:38;4.03;;;3.60;;
20423;SDS011;10371;49.042;8.002;2023-09-19T02:58:41;6.13;;;4.00;;
20423;SDS011;10371;49.042;8.002;2023-09-19T02:59:42;4.57;;;3.45;;
20423;SDS011;10371;49.042;8.002;2023-09-19T03:00:44;4.82;;;3.88;;
20423;SDS011;10371;49.042;8.002;2023-09-19T03:01:47;4.65;;;3.83;;
20423;SDS011;10371;49.042;8.002;2023-09-19T03:02:52;4.95;;;3.83;;
20423;SDS011;10371;49.042;8.002;2023-09-19T03:03:54;4.78;;;4.38;;
20423;SDS011;10371;49.042;8.002;2023-09-19T03:04:54;4.72;;;4.10;;
20423;SDS011;10371;49.042;8.002;2023-09-19T03:05:56;6.70;;;5.18;;
20423;SDS011;10371;49.042;8.002;2023-09-19T03:06:58;4.85;;;4.45;;
20423;SDS011;10371;49.042;8.002;2023-09-19T03:08:00;4.25;;;3.85;;
20423;SDS011;10371;49.042;8.002;2023-09-19T03:09:01;3.20;;;2.90;;
20423;SDS011;10371;49.042;8.002;2023-09-19T03:10:03;2.95;;;2.72;;
20423;SDS011;10371;49.042;8.002;2023-09-19T03:11:05;3.25;;;2.83;;
20423;SDS011;10371;49.042;8.002;2023-09-19T03:12:07;3.00;;;2.75;;
20423;SDS011;10371;49.042;8.002;2023-09-19T03:13:08;3.78;;;2.95;;
20423;SDS011;10371;49.042;8.002;2023-09-19T03:14:09;2.83;;;2.63;;
20423;SDS011;10371;49.042;8.002;2023-09-19T03:15:10;3.03;;;2.83;;
20423;SDS011;10371;49.042;8.002;2023-09-19T03:16:11;3.72;;;3.22;;
20423;SDS011;10371;49.042;8.002;2023-09-19T03:17:14;4.20;;;3.42;;
20423;SDS011;10371;49.042;8.002;2023-09-19T03:18:15;3.50;;;3.20;;
20423;SDS011;10371;49.042;8.002;2023-09-19T03:19:15;3.78;;;3.30;;
20423;SDS011;10371;49.042;8.002;2023-09-19T03:20:16;3.35;;;3.05;;
20423;SDS011;10371;49.042;8.002;2023-09-19T03:21:21;3.33;;;3.03;;
20423;SDS011;10371;49.042;8.002;2023-09-19T03:22:21;4.70;;;3.17;;
20423;SDS011;10371;49.042;8.002;2023-09-19T03:23:22;3.17;;;2.88;;
20423;SDS011;10371;49.042;8.002;2023-09-19T03:24:23;2.88;;;2.67;;
20423;SDS011;10371;49.042;8.002;2023-09-19T03:25:23;3.63;;;3.20;;
20423;SDS011;10371;49.042;8.002;2023-09-19T03:26:24;3.80;;;3.30;;
20423;SDS011;10371;49.042;8.002;2023-09-19T03:27:26;3.17;;;2.92;;
20423;SDS011;10371;49.042;8.002;2023-09-19T03:28:27;3.40;;;3.10;;
20423;SDS011;10371;49.042;8.002;2023-09-19T03:29:27;4.80;;;2.80;;
20423;SDS011;10371;49.042;8.002;2023-09-19T03:30:28;3.00;;;2.80;;
20423;SDS011;10371;49.042;8.002;2023-09-19T03:31:28;3.08;;;2.80;;
20423;SDS011;10371;49.042;8.002;2023-09-19T03:32:28;3.20;;;2.50;;
20423;SDS011;10371;49.042;8.002;2023-09-19T03:33:29;3.78;;;2.67;;
20423;SDS011;10371;49.042;8.002;2023-09-19T03:34:31;3.67;;;2.60;;
20423;SDS011;10371;49.042;8.002;2023-09-19T03:35:32;3.00;;;2.70;;
20423;SDS011;10371;49.042;8.002;2023-09-19T03:36:32;2.95;;;2.33;;
20423;SDS011;10371;49.042;8.002;2023-09-19T03:37:32;2.90;;;2.60;;
20423;SDS011;10371;49.042;8.002;2023-09-19T03:38:33;2.65;;;2.30;;
20423;SDS011;10371;49.042;8.002;2023-09-19T03:39:34;4.20;;;2.50;;
20423;SDS011;10371;49.042;8.002;2023-09-19T03:40:34;3.85;;;2.58;;
20423;SDS011;10371;49.042;8.002;2023-09-19T03:41:37;5.28;;;2.70;;
20423;SDS011;10371;49.042;8.002;2023-09-19T03:42:39;2.50;;;2.30;;
20423;SDS011;10371;49.042;8.002;2023-09-19T03:43:40;2.78;;;2.58;;
20423;SDS011;10371;49.042;8.002;2023-09-19T03:44:40;3.03;;;2.78;;
20423;SDS011;10371;49.042;8.002;2023-09-19T03:45:40;2.97;;;2.45;;
20423;SDS011;10371;49.042;8.002;2023-09-19T03:46:41;2.45;;;2.25;;
20423;SDS011;10371;49.042;8.002;2023-09-19T03:47:41;2.28;;;2.15;;
20423;SDS011;10371;49.042;8.002;2023-09-19T03:48:41;3.58;;;2.60;;
20423;SDS011;10371;49.042;8.002;2023-09-19T03:49:42;3.15;;;2.45;;
20423;SDS011;10371;49.042;8.002;2023-09-19T03:50:42;2.70;;;2.50;;
20423;SDS011;10371;49.042;8.002;2023-09-19T03:51:44;3.15;;;2.70;;
20423;SDS011;10371;49.042;8.002;2023-09-19T03:52:44;3.05;;;2.15;;
20423;SDS011;10371;49.042;8.002;2023-09-19T03:53:45;3.25;;;2.40;;
20423;SDS011;10371;49.042;8.002;2023-09-19T03:54:45;2.78;;;2.53;;
20423;SDS011;10371;49.042;8.002;2023-09-19T03:55:45;3.10;;;2.53;;
20423;SDS011;10371;49.042;8.002;2023-09-19T03:56:46;2.70;;;2.22;;
20423;SDS011;10371;49.042;8.002;2023-09-19T03:57:49;3.05;;;2.45;;
20423;SDS011;10371;49.042;8.002;2023-09-19T03:58:50;2.97;;;2.58;;
20423;SDS011;10371;49.042;8.002;2023-09-19T03:59:50;2.90;;;2.55;;
20423;SDS011;10371;49.042;8.002;2023-09-19T04:00:56;4.35;;;2.30;;
20423;SDS011;10371;49.042;8.002;2023-09-19T04:01:57;2.40;;;2.30;;
20423;SDS011;10371;49.042;8.002;2023-09-19T04:02:58;2.58;;;2.38;;
20423;SDS011;10371;49.042;8.002;2023-09-19T04:03:58;2.90;;;2.50;;
20423;SDS011;10371;49.042;8.002;2023-09-19T04:04:58;2.75;;;2.55;;
20423;SDS011;10371;49.042;8.002;2023-09-19T04:05:59;2.72;;;2.53;;
20423;SDS011;10371;49.042;8.002;2023-09-19T04:06:59;2.72;;;2.53;;
20423;SDS011;10371;49.042;8.002;2023-09-19T04:07:59;2.47;;;2.25;;
20423;SDS011;10371;49.042;8.002;2023-09-19T04:09:00;3.15;;;2.90;;
20423;SDS011;10371;49.042;8.002;2023-09-19T04:10:01;2.60;;;2.40;;
20423;SDS011;10371;49.042;8.002;2023-09-19T04:11:03;2.60;;;2.40;;
20423;SDS011;10371;49.042;8.002;2023-09-19T04:12:03;5.28;;;2.63;;
20423;SDS011;10371;49.042;8.002;2023-09-19T04:13:04;2.50;;;2.30;;
20423;SDS011;10371;49.042;8.002;2023-09-19T04:14:06;2.58;;;2.40;;
20423;SDS011;10371;49.042;8.002;2023-09-19T04:15:06;3.15;;;2.90;;
20423;SDS011;10371;49.042;8.002;2023-09-19T04:16:08;2.92;;;2.72;;
20423;SDS011;10371;49.042;8.002;2023-09-19T04:17:09;2.60;;;2.40;;
20423;SDS011;10371;49.042;8.002;2023-09-19T04:18:10;2.58;;;2.38;;
20423;SDS011;10371;49.042;8.002;2023-09-19T04:19:10;4.85;;;2.53;;
20423;SDS011;10371;49.042;8.002;2023-09-19T04:20:10;3.17;;;2.80;;
20423;SDS011;10371;49.042;8.002;2023-09-19T04:21:12;2.78;;;2.58;;
20423;SDS011;10371;49.042;8.002;2023-09-19T04:22:12;2.88;;;2.53;;
20423;SDS011;10371;49.042;8.002;2023-09-19T04:23:12;3.10;;;2.50;;
20423;SDS011;10371;49.042;8.002;2023-09-19T04:24:13;2.63;;;2.42;;
20423;SDS011;10371;49.042;8.002;2023-09-19T04:25:14;2.65;;;2.45;;
20423;SDS011;10371;49.042;8.002;2023-09-19T04:26:14;5.25;;;2.72;;
20423;SDS011;10371;49.042;8.002;2023-09-19T04:27:16;2.80;;;2.60;;
20423;SDS011;10371;49.042;8.002;2023-09-19T04:28:18;4.70;;;2.55;;
20423;SDS011;10371;49.042;8.002;2023-09-19T04:29:19;2.50;;;2.20;;
20423;SDS011;10371;49.042;8.002;2023-09-19T04:30:20;3.45;;;2.70;;
20423;SDS011;10371;49.042;8.002;2023-09-19T04:31:21;2.83;;;2.63;;
20423;SDS011;10371;49.042;8.002;2023-09-19T04:32:22;2.78;;;2.58;;
20423;SDS011;10371;49.042;8.002;2023-09-19T04:33:22;2.72;;;2.53;;
20423;SDS011;10371;49.042;8.002;2023-09-19T04:34:22;3.28;;;2.30;;
20423;SDS011;10371;49.042;8.002;2023-09-19T04:35:24;2.63;;;2.42;;
20423;SDS011;10371;49.042;8.002;2023-09-19T04:36:25;4.35;;;2.83;;
20423;SDS011;10371;49.042;8.002;2023-09-19T04:37:26;2.92;;;2.63;;
20423;SDS011;10371;49.042;8.002;2023-09-19T04:38:26;2.67;;;2.47;;
20423;SDS011;10371;49.042;8.002;2023-09-19T04:39:27;2.60;;;2.40;;
20423;SDS011;10371;49.042;8.002;2023-09-19T04:40:28;2.85;;;2.55;;
20423;SDS011;10371;49.042;8.002;2023-09-19T04:41:29;4.93;;;2.50;;
20423;SDS011;10371;49.042;8.002;2023-09-19T04:42:29;2.58;;;2.38;;
20423;SDS011;10371;49.042;8.002;2023-09-19T04:43:30;2.50;;;2.30;;
20423;SDS011;10371;49.042;8.002;2023-09-19T04:44:30;4.35;;;2.80;;
20423;SDS011;10371;49.042;8.002;2023-09-19T04:45:30;3.65;;;2.60;;
20423;SDS011;10371;49.042;8.002;2023-09-19T04:46:31;5.82;;;2.92;;
20423;SDS011;10371;49.042;8.002;2023-09-19T04:47:31;4.28;;;2.70;;
20423;SDS011;10371;49.042;8.002;2023-09-19T04:48:32;3.17;;;2.53;;
20423;SDS011;10371;49.042;8.002;2023-09-19T04:49:34;2.60;;;2.40;;
20423;SDS011;10371;49.042;8.002;2023-09-19T04:50:35;3.10;;;2.47;;
20423;SDS011;10371;49.042;8.002;2023-09-19T04:51:35;2.35;;;2.15;;
20423;SDS011;10371;49.042;8.002;2023-09-19T04:52:36;2.30;;;2.20;;
20423;SDS011;10371;49.042;8.002;2023-09-19T04:53:37;2.10;;;2.00;;
20423;SDS011;10371;49.042;8.002;2023-09-19T04:54:37;3.67;;;1.90;;
20423;SDS011;10371;49.042;8.002;2023-09-19T04:55:38;2.53;;;2.33;;
20423;SDS011;10371;49.042;8.002;2023-09-19T04:56:38;2.63;;;2.42;;
20423;SDS011;10371;49.042;8.002;2023-09-19T04:57:40;2.55;;;2.35;;
20423;SDS011;10371;49.042;8.002;2023-09-19T04:58:40;2.42;;;2.22;;
20423;SDS011;10371;49.042;8.002;2023-09-19T04:59:41;2.47;;;2.28;;
20423;SDS011;10371;49.042;8.002;2023-09-19T05:00:41;2.78;;;2.25;;
20423;SDS011;10371;49.042;8.002;2023-09-19T05:01:41;2.45;;;2.28;;
20423;SDS011;10371;49.042;8.002;2023-09-19T05:02:41;2.55;;;2.35;;
20423;SDS011;10371;49.042;8.002;2023-09-19T05:03:42;3.92;;;2.72;;
20423;SDS011;10371;49.042;8.002;2023-09-19T05:04:42;2.75;;;2.40;;
20423;SDS011;10371;49.042;8.002;2023-09-19T05:05:43;3.20;;;2.53;;
20423;SDS011;10371;49.042;8.002;2023-09-19T05:06:44;4.80;;;2.63;;
20423;SDS011;10371;49.042;8.002;2023-09-19T05:07:45;3.70;;;2.58;;
20423;SDS011;10371;49.042;8.002;2023-09-19T05:08:46;3.00;;;2.63;;
20423;SDS011;10371;49.042;8.002;2023-09-19T05:09:46;3.28;;;2.33;;
20423;SDS011;10371;49.042;8.002;2023-09-19T05:10:46;2.97;;;2.60;;
20423;SDS011;10371;49.042;8.002;2023-09-19T05:11:47;4.57;;;2.60;;
20423;SDS011;10371;49.042;8.002;2023-09-19T05:12:48;4.28;;;2.70;;
20423;SDS011;10371;49.042;8.002;2023-09-19T05:13:51;4.28;;;2.90;;
20423;SDS011;10371;49.042;8.002;2023-09-19T05:14:52;3.00;;;2.40;;
20423;SDS011;10371;49.042;8.002;2023-09-19T05:15:53;4.10;;;2.70;;
20423;SDS011;10371;49.042;8.002;2023-09-19T05:16:53;3.35;;;2.75;;
20423;SDS011;10371;49.042;8.002;2023-09-19T05:17:53;3.83;;;3.10;;
20423;SDS011;10371;49.042;8.002;2023-09-19T05:18:55;3.10;;;2.80;;
20423;SDS011;10371;49.042;8.002;2023-09-19T05:19:56;3.00;;;2.80;;
20423;SDS011;10371;49.042;8.002;2023-09-19T05:20:57;3.30;;;3.10;;
20423;SDS011;10371;49.042;8.002;2023-09-19T05:21:58;6.55;;;3.42;;
20423;SDS011;10371;49.042;8.002;2023-09-19T05:24:00;5.35;;;3.97;;
20423;SDS011;10371;49.042;8.002;2023-09-19T05:25:01;7.00;;;4.15;;
20423;SDS011;10371;49.042;8.002;2023-09-19T05:26:04;4.93;;;3.90;;
20423;SDS011;10371;49.042;8.002;2023-09-19T05:27:05;5.88;;;4.30;;
20423;SDS011;10371;49.042;8.002;2023-09-19T05:28:07;4.68;;;3.83;;
20423;SDS011;10371;49.042;8.002;2023-09-19T05:29:08;5.03;;;4.03;;
20423;SDS011;10371;49.042;8.002;2023-09-19T05:30:09;3.90;;;3.60;;
20423;SDS011;10371;49.042;8.002;2023-09-19T05:31:10;4.50;;;3.90;;
20423;SDS011;10371;49.042;8.002;2023-09-19T05:32:10;4.55;;;3.47;;
20423;SDS011;10371;49.042;8.002;2023-09-19T05:33:11;3.70;;;3.35;;
20423;SDS011;10371;49.042;8.002;2023-09-19T05:34:12;3.50;;;3.20;;
20423;SDS011;10371;49.042;8.002;2023-09-19T05:35:12;3.65;;;3.22;;
20423;SDS011;10371;49.042;8.002;2023-09-19T05:36:13;4.32;;;3.25;;
20423;SDS011;10371;49.042;8.002;2023-09-19T05:37:16;3.13;;;2.83;;
20423;SDS011;10371;49.042;8.002;2023-09-19T05:38:17;3.47;;;3.15;;
20423;SDS011;10371;49.042;8.002;2023-09-19T05:39:19;4.25;;;3.20;;
20423;SDS011;10371;49.042;8.002;2023-09-19T05:40:19;3.35;;;2.92;;
20423;SDS011;10371;49.042;8.002;2023-09-19T05:41:20;4.03;;;2.88;;
20423;SDS011;10371;49.042;8.002;2023-09-19T05:42:21;3.00;;;2.60;;
20423;SDS011;10371;49.042;8.002;2023-09-19T05:43:21;3.63;;;2.60;;
20423;SDS011;10371;49.042;8.002;2023-09-19T05:44:22;4.55;;;3.00;;
20423;SDS011;10371;49.042;8.002;2023-09-19T05:45:22;2.95;;;2.47;;
20423;SDS011;10371;49.042;8.002;2023-09-19T05:46:22;4.80;;;2.53;;
20423;SDS011;10371;49.042;8.002;2023-09-19T05:47:22;2.85;;;2.58;;
20423;SDS011;10371;49.042;8.002;2023-09-19T05:48:22;3.42;;;2.75;;
20423;SDS011;10371;49.042;8.002;2023-09-19T05:49:23;2.90;;;2.60;;
20423;SDS011;10371;49.042;8.002;2023-09-19T05:50:24;2.92;;;2.70;;
20423;SDS011;10371;49.042;8.002;2023-09-19T05:51:24;2.60;;;2.40;;
20423;SDS011;10371;49.042;8.002;2023-09-19T05:52:28;3.50;;;2.58;;
20423;SDS011;10371;49.042;8.002;2023-09-19T05:53:29;3.53;;;2.58;;
20423;SDS011;10371;49.042;8.002;2023-09-19T05:54:29;2.47;;;2.28;;
20423;SDS011;10371;49.042;8.002;2023-09-19T05:55:30;2.95;;;2.63;;
20423;SDS011;10371;49.042;8.002;2023-09-19T05:56:31;3.20;;;2.53;;
20423;SDS011;10371;49.042;8.002;2023-09-19T05:57:31;3.00;;;2.70;;
20423;SDS011;10371;49.042;8.002;2023-09-19T05:58:31;2.92;;;2.60;;
20423;SDS011;10371;49.042;8.002;2023-09-19T05:59:31;5.68;;;2.70;;
20423;SDS011;10371;49.042;8.002;2023-09-19T06:00:33;3.67;;;2.67;;
20423;SDS011;10371;49.042;8.002;2023-09-19T06:01:33;4.50;;;2.80;;
20423;SDS011;10371;49.042;8.002;2023-09-19T06:02:35;2.90;;;2.60;;
20423;SDS011;10371;49.042;8.002;2023-09-19T06:03:36;3.30;;;2.17;;
20423;SDS011;10371;49.042;8.002;2023-09-19T06:04:36;5.28;;;2.63;;
20423;SDS011;10371;49.042;8.002;2023-09-19T06:05:38;2.80;;;2.55;;
20423;SDS011;10371;49.042;8.002;2023-09-19T06:06:41;3.13;;;2.47;;
20423;SDS011;10371;49.042;8.002;2023-09-19T06:07:42;4.80;;;2.40;;
20423;SDS011;10371;49.042;8.002;2023-09-19T06:08:42;4.10;;;2.40;;
20423;SDS011;10371;49.042;8.002;2023-09-19T06:09:45;4.45;;;2.90;;
20423;SDS011;10371;49.042;8.002;2023-09-19T06:10:46;2.92;;;2.20;;
20423;SDS011;10371;49.042;8.002;2023-09-19T06:11:46;3.42;;;2.13;;
20423;SDS011;10371;49.042;8.002;2023-09-19T06:12:47;2.60;;;2.25;;
20423;SDS011;10371;49.042;8.002;2023-09-19T06:13:48;4.20;;;2.50;;
20423;SDS011;10371;49.042;8.002;2023-09-19T06:14:48;2.40;;;2.20;;
20423;SDS011;10371;49.042;8.002;2023-09-19T06:15:49;3.28;;;2.28;;
20423;SDS011;10371;49.042;8.002;2023-09-19T06:16:50;2.78;;;2.30;;
20423;SDS011;10371;49.042;8.002;2023-09-19T06:17:51;3.05;;;2.35;;
20423;SDS011;10371;49.042;8.002;2023-09-19T06:18:56;3.85;;;2.55;;
20423;SDS011;10371;49.042;8.002;2023-09-19T06:19:56;2.65;;;2.45;;
20423;SDS011;10371;49.042;8.002;2023-09-19T06:20:57;3.78;;;2.35;;
20423;SDS011;10371;49.042;8.002;2023-09-19T06:21:57;3.78;;;2.50;;
20423;SDS011;10371;49.042;8.002;2023-09-19T06:22:59;3.45;;;2.30;;
20423;SDS011;10371;49.042;8.002;2023-09-19T06:24:02;5.28;;;2.67;;
20423;SDS011;10371;49.042;8.002;2023-09-19T06:25:02;2.78;;;2.42;;
20423;SDS011;10371;49.042;8.002;2023-09-19T06:26:03;3.42;;;2.25;;
20423;SDS011;10371;49.042;8.002;2023-09-19T06:27:06;2.78;;;2.40;;
20423;SDS011;10371;49.042;8.002;2023-09-19T06:28:07;3.33;;;2.30;;
20423;SDS011;10371;49.042;8.002;2023-09-19T06:29:08;4.25;;;2.47;;